Terminal Aerodrome Forecast
Issued by NWS

Home | Current Version | Previous Version | Text Only | Print | Product List | Glossary On
Versions: 1 2 3 4 5 6 7 8 9 10 11 12 13 14 15 16 17 18
000
FTUS43 KEAX 251700
TAFMKC
TAF
KMKC 251724Z 2518/2618 25007KT P6SM SKC
     FM260100 18008KT P6SM BKN080 OVC200
     FM260900 24010KT P6SM -RASN OVC025
     FM261300 30015G22KT P6SM -RASN OVC025=

USA.gov is the U.S. government's official web portal to all federal, state and local government web resources and services.